sensor_id;sensor_type;location;lat;lon;timestamp;temperature;humidity
15483;DHT22;7843;50.330;7.312;2022-11-15T00:00:54;7.80;99.90
15483;DHT22;7843;50.330;7.312;2022-11-15T00:03:24;7.80;99.90
15483;DHT22;7843;50.330;7.312;2022-11-15T00:05:51;7.70;99.90
15483;DHT22;7843;50.330;7.312;2022-11-15T00:08:18;7.60;99.90
15483;DHT22;7843;50.330;7.312;2022-11-15T00:10:59;7.50;99.90
15483;DHT22;7843;50.330;7.312;2022-11-15T00:13:27;7.50;99.90
15483;DHT22;7843;50.330;7.312;2022-11-15T00:15:57;7.50;99.90
15483;DHT22;7843;50.330;7.312;2022-11-15T00:18:24;7.50;99.90
15483;DHT22;7843;50.330;7.312;2022-11-15T00:20:51;7.50;99.90
15483;DHT22;7843;50.330;7.312;2022-11-15T00:23:18;7.40;99.90
15483;DHT22;7843;50.330;7.312;2022-11-15T00:25:45;7.30;99.90
15483;DHT22;7843;50.330;7.312;2022-11-15T00:28:11;7.30;99.90
15483;DHT22;7843;50.330;7.312;2022-11-15T00:30:38;7.30;99.90
15483;DHT22;7843;50.330;7.312;2022-11-15T00:33:06;7.30;99.90
15483;DHT22;7843;50.330;7.312;2022-11-15T00:35:33;7.30;99.90
15483;DHT22;7843;50.330;7.312;2022-11-15T00:38:01;7.40;99.90
15483;DHT22;7843;50.330;7.312;2022-11-15T00:40:28;7.50;99.90
15483;DHT22;7843;50.330;7.312;2022-11-15T00:42:55;7.40;99.90
15483;DHT22;7843;50.330;7.312;2022-11-15T00:45:23;7.50;99.90
15483;DHT22;7843;50.330;7.312;2022-11-15T00:47:50;7.50;99.90
15483;DHT22;7843;50.330;7.312;2022-11-15T00:50:17;7.50;99.90
15483;DHT22;7843;50.330;7.312;2022-11-15T00:52:44;7.50;99.90
15483;DHT22;7843;50.330;7.312;2022-11-15T00:55:16;7.50;99.90
15483;DHT22;7843;50.330;7.312;2022-11-15T00:57:43;7.50;99.90
15483;DHT22;7843;50.330;7.312;2022-11-15T01:00:10;7.60;99.90
15483;DHT22;7843;50.330;7.312;2022-11-15T01:02:37;7.60;99.90
15483;DHT22;7843;50.330;7.312;2022-11-15T01:05:04;7.70;99.90
15483;DHT22;7843;50.330;7.312;2022-11-15T01:07:31;7.70;99.90
15483;DHT22;7843;50.330;7.312;2022-11-15T01:09:58;7.80;99.90
15483;DHT22;7843;50.330;7.312;2022-11-15T01:12:25;7.80;99.90
15483;DHT22;7843;50.330;7.312;2022-11-15T01:14:51;7.80;99.90
15483;DHT22;7843;50.330;7.312;2022-11-15T01:17:18;7.90;99.90
15483;DHT22;7843;50.330;7.312;2022-11-15T01:19:45;7.90;99.90
15483;DHT22;7843;50.330;7.312;2022-11-15T01:22:11;8.00;99.90
15483;DHT22;7843;50.330;7.312;2022-11-15T01:24:38;8.00;99.90
15483;DHT22;7843;50.330;7.312;2022-11-15T01:27:05;8.10;99.90
15483;DHT22;7843;50.330;7.312;2022-11-15T01:29:32;8.10;99.90
15483;DHT22;7843;50.330;7.312;2022-11-15T01:31:58;8.10;99.90
15483;DHT22;7843;50.330;7.312;2022-11-15T01:34:28;8.10;99.90
15483;DHT22;7843;50.330;7.312;2022-11-15T01:36:54;8.20;99.90
15483;DHT22;7843;50.330;7.312;2022-11-15T01:39:21;8.20;99.90
15483;DHT22;7843;50.330;7.312;2022-11-15T01:41:48;8.30;99.90
15483;DHT22;7843;50.330;7.312;2022-11-15T01:47:48;8.50;99.90
15483;DHT22;7843;50.330;7.312;2022-11-15T01:50:01;8.60;99.90
15483;DHT22;7843;50.330;7.312;2022-11-15T01:52:31;8.70;99.90
15483;DHT22;7843;50.330;7.312;2022-11-15T01:55:06;8.70;99.90
15483;DHT22;7843;50.330;7.312;2022-11-15T01:57:34;8.80;99.90
15483;DHT22;7843;50.330;7.312;2022-11-15T02:00:02;8.90;99.90
15483;DHT22;7843;50.330;7.312;2022-11-15T02:02:30;8.90;99.90
15483;DHT22;7843;50.330;7.312;2022-11-15T02:04:56;8.90;99.90
15483;DHT22;7843;50.330;7.312;2022-11-15T02:07:23;8.90;99.90
15483;DHT22;7843;50.330;7.312;2022-11-15T02:09:50;9.00;99.90
15483;DHT22;7843;50.330;7.312;2022-11-15T02:12:20;9.00;99.90
15483;DHT22;7843;50.330;7.312;2022-11-15T02:14:51;9.10;99.90
15483;DHT22;7843;50.330;7.312;2022-11-15T02:31:32;9.10;99.90
15483;DHT22;7843;50.330;7.312;2022-11-15T02:37:32;9.10;99.90
15483;DHT22;7843;50.330;7.312;2022-11-15T02:40:07;9.10;99.90
15483;DHT22;7843;50.330;7.312;2022-11-15T02:42:42;9.10;99.90
15483;DHT22;7843;50.330;7.312;2022-11-15T02:45:37;9.10;99.90
15483;DHT22;7843;50.330;7.312;2022-11-15T02:48:06;9.10;99.90
15483;DHT22;7843;50.330;7.312;2022-11-15T02:50:34;9.10;99.90
15483;DHT22;7843;50.330;7.312;2022-11-15T02:53:01;9.10;99.90
15483;DHT22;7843;50.330;7.312;2022-11-15T02:55:34;9.10;99.90
15483;DHT22;7843;50.330;7.312;2022-11-15T02:58:25;9.10;99.90
15483;DHT22;7843;50.330;7.312;2022-11-15T03:01:04;9.10;99.90
15483;DHT22;7843;50.330;7.312;2022-11-15T03:09:21;9.20;99.90
15483;DHT22;7843;50.330;7.312;2022-11-15T03:11:59;9.10;99.90
15483;DHT22;7843;50.330;7.312;2022-11-15T03:14:37;9.20;99.90
15483;DHT22;7843;50.330;7.312;2022-11-15T03:17:18;9.20;99.90
15483;DHT22;7843;50.330;7.312;2022-11-15T03:19:54;9.20;99.90
15483;DHT22;7843;50.330;7.312;2022-11-15T03:22:28;9.20;99.90
15483;DHT22;7843;50.330;7.312;2022-11-15T03:25:02;9.30;99.90
15483;DHT22;7843;50.330;7.312;2022-11-15T03:27:35;9.40;99.90
15483;DHT22;7843;50.330;7.312;2022-11-15T03:30:07;9.40;99.90
15483;DHT22;7843;50.330;7.312;2022-11-15T03:32:42;9.40;99.90
15483;DHT22;7843;50.330;7.312;2022-11-15T03:35:32;9.40;99.90
15483;DHT22;7843;50.330;7.312;2022-11-15T03:38:08;9.40;99.90
15483;DHT22;7843;50.330;7.312;2022-11-15T03:40:46;9.40;99.90
15483;DHT22;7843;50.330;7.312;2022-11-15T03:43:22;9.60;99.90
15483;DHT22;7843;50.330;7.312;2022-11-15T03:46:07;9.50;99.90
15483;DHT22;7843;50.330;7.312;2022-11-15T03:48:39;9.50;99.90
15483;DHT22;7843;50.330;7.312;2022-11-15T03:51:06;9.60;99.90
15483;DHT22;7843;50.330;7.312;2022-11-15T03:53:33;9.50;99.90
15483;DHT22;7843;50.330;7.312;2022-11-15T03:56:00;9.60;99.90
15483;DHT22;7843;50.330;7.312;2022-11-15T03:58:26;9.70;99.90
15483;DHT22;7843;50.330;7.312;2022-11-15T04:00:53;9.70;99.90
15483;DHT22;7843;50.330;7.312;2022-11-15T04:03:20;9.70;99.90
15483;DHT22;7843;50.330;7.312;2022-11-15T04:05:46;9.70;99.90
15483;DHT22;7843;50.330;7.312;2022-11-15T04:08:13;9.70;99.90
15483;DHT22;7843;50.330;7.312;2022-11-15T04:10:40;9.60;99.90
15483;DHT22;7843;50.330;7.312;2022-11-15T04:13:06;9.60;99.90
15483;DHT22;7843;50.330;7.312;2022-11-15T04:15:33;9.50;99.90
15483;DHT22;7843;50.330;7.312;2022-11-15T04:18:00;9.50;99.90
15483;DHT22;7843;50.330;7.312;2022-11-15T04:20:29;9.40;99.90
15483;DHT22;7843;50.330;7.312;2022-11-15T04:23:19;9.30;99.90
15483;DHT22;7843;50.330;7.312;2022-11-15T04:26:22;9.10;99.90
15483;DHT22;7843;50.330;7.312;2022-11-15T04:28:49;8.90;99.90
15483;DHT22;7843;50.330;7.312;2022-11-15T04:31:34;8.80;99.90
15483;DHT22;7843;50.330;7.312;2022-11-15T04:34:01;8.70;99.90
15483;DHT22;7843;50.330;7.312;2022-11-15T04:36:27;8.60;99.90
15483;DHT22;7843;50.330;7.312;2022-11-15T04:39:16;8.60;99.90
15483;DHT22;7843;50.330;7.312;2022-11-15T04:41:43;8.50;99.90
15483;DHT22;7843;50.330;7.312;2022-11-15T04:44:09;8.40;99.90
15483;DHT22;7843;50.330;7.312;2022-11-15T04:46:36;8.40;99.90
15483;DHT22;7843;50.330;7.312;2022-11-15T04:49:03;8.40;99.90
15483;DHT22;7843;50.330;7.312;2022-11-15T04:51:29;8.40;99.90
15483;DHT22;7843;50.330;7.312;2022-11-15T04:53:56;8.40;99.90
15483;DHT22;7843;50.330;7.312;2022-11-15T04:56:23;8.30;99.90
15483;DHT22;7843;50.330;7.312;2022-11-15T04:58:49;8.20;99.90
15483;DHT22;7843;50.330;7.312;2022-11-15T05:01:16;8.20;99.90
15483;DHT22;7843;50.330;7.312;2022-11-15T05:03:44;8.10;99.90
15483;DHT22;7843;50.330;7.312;2022-11-15T05:06:43;8.10;99.90
15483;DHT22;7843;50.330;7.312;2022-11-15T05:09:10;8.00;99.90
15483;DHT22;7843;50.330;7.312;2022-11-15T05:11:37;7.90;99.90
15483;DHT22;7843;50.330;7.312;2022-11-15T05:14:03;7.90;99.90
15483;DHT22;7843;50.330;7.312;2022-11-15T05:16:32;7.90;99.90
15483;DHT22;7843;50.330;7.312;2022-11-15T05:18:58;7.90;99.90
15483;DHT22;7843;50.330;7.312;2022-11-15T05:21:25;7.90;99.90
15483;DHT22;7843;50.330;7.312;2022-11-15T05:23:52;8.00;99.90
15483;DHT22;7843;50.330;7.312;2022-11-15T05:26:18;8.10;99.90
15483;DHT22;7843;50.330;7.312;2022-11-15T05:28:45;8.10;99.90
15483;DHT22;7843;50.330;7.312;2022-11-15T05:31:14;8.20;99.90
15483;DHT22;7843;50.330;7.312;2022-11-15T05:33:42;8.20;99.90
15483;DHT22;7843;50.330;7.312;2022-11-15T05:36:33;8.30;99.90
15483;DHT22;7843;50.330;7.312;2022-11-15T05:39:01;8.40;99.90
15483;DHT22;7843;50.330;7.312;2022-11-15T05:41:39;8.40;99.90
15483;DHT22;7843;50.330;7.312;2022-11-15T05:44:09;8.40;99.90
15483;DHT22;7843;50.330;7.312;2022-11-15T05:46:37;8.50;99.90
15483;DHT22;7843;50.330;7.312;2022-11-15T05:49:07;8.60;99.90
15483;DHT22;7843;50.330;7.312;2022-11-15T05:51:36;8.70;99.90
15483;DHT22;7843;50.330;7.312;2022-11-15T05:54:03;8.80;99.90
15483;DHT22;7843;50.330;7.312;2022-11-15T05:56:30;8.80;99.90
15483;DHT22;7843;50.330;7.312;2022-11-15T05:58:57;9.00;99.90
15483;DHT22;7843;50.330;7.312;2022-11-15T06:01:25;9.10;99.90
15483;DHT22;7843;50.330;7.312;2022-11-15T06:03:53;9.10;99.90
15483;DHT22;7843;50.330;7.312;2022-11-15T06:06:20;9.10;99.90
15483;DHT22;7843;50.330;7.312;2022-11-15T06:08:46;9.10;99.90
15483;DHT22;7843;50.330;7.312;2022-11-15T06:11:14;9.00;99.90
15483;DHT22;7843;50.330;7.312;2022-11-15T06:13:41;9.00;99.90
15483;DHT22;7843;50.330;7.312;2022-11-15T06:16:07;9.00;99.90
15483;DHT22;7843;50.330;7.312;2022-11-15T06:18:34;9.00;99.90
15483;DHT22;7843;50.330;7.312;2022-11-15T06:21:01;9.00;99.90
15483;DHT22;7843;50.330;7.312;2022-11-15T06:23:31;9.00;99.90
15483;DHT22;7843;50.330;7.312;2022-11-15T06:25:59;9.10;99.90
15483;DHT22;7843;50.330;7.312;2022-11-15T06:28:30;9.10;99.90
15483;DHT22;7843;50.330;7.312;2022-11-15T06:31:09;9.10;99.90
15483;DHT22;7843;50.330;7.312;2022-11-15T06:33:38;9.00;99.90
15483;DHT22;7843;50.330;7.312;2022-11-15T06:36:08;9.00;99.90
15483;DHT22;7843;50.330;7.312;2022-11-15T06:38:37;9.00;99.90
15483;DHT22;7843;50.330;7.312;2022-11-15T06:41:06;9.00;99.90
15483;DHT22;7843;50.330;7.312;2022-11-15T06:43:33;9.00;99.90
15483;DHT22;7843;50.330;7.312;2022-11-15T06:46:01;8.90;99.90
15483;DHT22;7843;50.330;7.312;2022-11-15T06:48:29;8.90;99.90
15483;DHT22;7843;50.330;7.312;2022-11-15T06:50:59;8.90;99.90
15483;DHT22;7843;50.330;7.312;2022-11-15T06:53:26;8.80;99.90
15483;DHT22;7843;50.330;7.312;2022-11-15T06:55:56;8.70;99.90
15483;DHT22;7843;50.330;7.312;2022-11-15T06:58:24;8.70;99.90
15483;DHT22;7843;50.330;7.312;2022-11-15T07:00:51;8.60;99.90
15483;DHT22;7843;50.330;7.312;2022-11-15T07:03:17;8.60;99.90
15483;DHT22;7843;50.330;7.312;2022-11-15T07:05:52;8.50;99.90
15483;DHT22;7843;50.330;7.312;2022-11-15T07:08:19;8.40;99.90
15483;DHT22;7843;50.330;7.312;2022-11-15T07:10:46;8.30;99.90
15483;DHT22;7843;50.330;7.312;2022-11-15T07:13:13;8.30;99.90
15483;DHT22;7843;50.330;7.312;2022-11-15T07:15:40;8.20;99.90
15483;DHT22;7843;50.330;7.312;2022-11-15T07:18:07;8.10;99.90
15483;DHT22;7843;50.330;7.312;2022-11-15T07:20:34;8.10;99.90
15483;DHT22;7843;50.330;7.312;2022-11-15T07:23:04;8.10;99.90
15483;DHT22;7843;50.330;7.312;2022-11-15T07:25:31;8.10;99.90
15483;DHT22;7843;50.330;7.312;2022-11-15T07:28:01;8.20;99.90
15483;DHT22;7843;50.330;7.312;2022-11-15T07:30:28;8.20;99.90
15483;DHT22;7843;50.330;7.312;2022-11-15T07:32:59;8.20;99.90
15483;DHT22;7843;50.330;7.312;2022-11-15T07:35:27;8.20;99.90
15483;DHT22;7843;50.330;7.312;2022-11-15T07:38:00;8.20;99.90
15483;DHT22;7843;50.330;7.312;2022-11-15T07:40:29;8.30;99.90
15483;DHT22;7843;50.330;7.312;2022-11-15T07:43:00;8.30;99.90
15483;DHT22;7843;50.330;7.312;2022-11-15T07:45:27;8.40;99.90
15483;DHT22;7843;50.330;7.312;2022-11-15T07:47:54;8.40;99.90
15483;DHT22;7843;50.330;7.312;2022-11-15T07:50:26;8.50;99.90
15483;DHT22;7843;50.330;7.312;2022-11-15T07:52:54;8.60;99.90
15483;DHT22;7843;50.330;7.312;2022-11-15T07:55:22;8.60;99.90
15483;DHT22;7843;50.330;7.312;2022-11-15T07:57:49;8.70;99.90
15483;DHT22;7843;50.330;7.312;2022-11-15T08:00:16;8.70;99.90
15483;DHT22;7843;50.330;7.312;2022-11-15T08:02:44;8.80;99.90
15483;DHT22;7843;50.330;7.312;2022-11-15T08:05:11;8.90;99.90
15483;DHT22;7843;50.330;7.312;2022-11-15T08:07:38;8.90;99.90
15483;DHT22;7843;50.330;7.312;2022-11-15T08:10:07;8.90;99.90
15483;DHT22;7843;50.330;7.312;2022-11-15T08:12:34;8.90;99.90
15483;DHT22;7843;50.330;7.312;2022-11-15T08:15:01;8.90;99.90
15483;DHT22;7843;50.330;7.312;2022-11-15T08:17:27;8.90;99.90
15483;DHT22;7843;50.330;7.312;2022-11-15T08:19:58;8.90;99.90
15483;DHT22;7843;50.330;7.312;2022-11-15T08:22:25;8.90;99.90
15483;DHT22;7843;50.330;7.312;2022-11-15T08:24:52;8.90;99.90
15483;DHT22;7843;50.330;7.312;2022-11-15T08:27:18;9.00;99.90
15483;DHT22;7843;50.330;7.312;2022-11-15T08:29:46;9.00;99.90
15483;DHT22;7843;50.330;7.312;2022-11-15T08:32:13;9.00;99.90
15483;DHT22;7843;50.330;7.312;2022-11-15T08:34:40;9.10;99.90
15483;DHT22;7843;50.330;7.312;2022-11-15T08:37:07;9.20;99.90
15483;DHT22;7843;50.330;7.312;2022-11-15T08:39:33;9.30;99.90
15483;DHT22;7843;50.330;7.312;2022-11-15T08:42:00;9.30;99.90
15483;DHT22;7843;50.330;7.312;2022-11-15T08:44:27;9.40;99.90
15483;DHT22;7843;50.330;7.312;2022-11-15T08:46:53;9.40;99.90
15483;DHT22;7843;50.330;7.312;2022-11-15T08:49:20;9.40;99.90
15483;DHT22;7843;50.330;7.312;2022-11-15T08:51:47;9.40;99.90
15483;DHT22;7843;50.330;7.312;2022-11-15T08:54:14;9.50;99.90
15483;DHT22;7843;50.330;7.312;2022-11-15T08:56:40;9.50;99.90
15483;DHT22;7843;50.330;7.312;2022-11-15T08:59:07;9.60;99.90
15483;DHT22;7843;50.330;7.312;2022-11-15T09:01:34;9.70;99.90
15483;DHT22;7843;50.330;7.312;2022-11-15T09:04:00;9.70;99.90
15483;DHT22;7843;50.330;7.312;2022-11-15T09:06:27;9.80;99.90
15483;DHT22;7843;50.330;7.312;2022-11-15T09:08:54;9.80;99.90
15483;DHT22;7843;50.330;7.312;2022-11-15T09:11:21;9.90;99.90
15483;DHT22;7843;50.330;7.312;2022-11-15T09:13:49;9.90;99.90
15483;DHT22;7843;50.330;7.312;2022-11-15T09:16:15;10.00;99.90
15483;DHT22;7843;50.330;7.312;2022-11-15T09:18:42;10.20;99.90
15483;DHT22;7843;50.330;7.312;2022-11-15T09:21:09;10.20;99.90
15483;DHT22;7843;50.330;7.312;2022-11-15T09:23:37;10.30;99.90
15483;DHT22;7843;50.330;7.312;2022-11-15T09:26:05;10.30;99.90
15483;DHT22;7843;50.330;7.312;2022-11-15T09:28:32;10.40;99.90
15483;DHT22;7843;50.330;7.312;2022-11-15T09:31:02;10.40;99.90
15483;DHT22;7843;50.330;7.312;2022-11-15T09:33:29;10.40;99.90
15483;DHT22;7843;50.330;7.312;2022-11-15T09:36:00;10.40;99.90
15483;DHT22;7843;50.330;7.312;2022-11-15T09:38:27;10.40;99.90
15483;DHT22;7843;50.330;7.312;2022-11-15T09:49:04;10.50;99.90
15483;DHT22;7843;50.330;7.312;2022-11-15T09:51:34;10.50;99.90
15483;DHT22;7843;50.330;7.312;2022-11-15T09:57:02;10.60;99.90
15483;DHT22;7843;50.330;7.312;2022-11-15T10:02:33;10.80;99.90
15483;DHT22;7843;50.330;7.312;2022-11-15T10:05:02;10.90;99.90
15483;DHT22;7843;50.330;7.312;2022-11-15T10:08:51;11.00;99.90
15483;DHT22;7843;50.330;7.312;2022-11-15T10:10:47;11.10;99.90
15483;DHT22;7843;50.330;7.312;2022-11-15T10:13:32;11.10;99.90
15483;DHT22;7843;50.330;7.312;2022-11-15T10:21:25;11.10;99.90
15483;DHT22;7843;50.330;7.312;2022-11-15T10:23:54;11.20;99.90
15483;DHT22;7843;50.330;7.312;2022-11-15T10:26:23;11.10;99.90
15483;DHT22;7843;50.330;7.312;2022-11-15T10:28:50;11.20;99.90
15483;DHT22;7843;50.330;7.312;2022-11-15T10:31:26;11.20;99.90
15483;DHT22;7843;50.330;7.312;2022-11-15T10:34:13;11.20;99.90
15483;DHT22;7843;50.330;7.312;2022-11-15T10:37:06;11.20;99.90
15483;DHT22;7843;50.330;7.312;2022-11-15T10:39:31;11.30;99.90
15483;DHT22;7843;50.330;7.312;2022-11-15T10:42:27;11.30;99.90
15483;DHT22;7843;50.330;7.312;2022-11-15T10:44:54;11.40;99.90
15483;DHT22;7843;50.330;7.312;2022-11-15T10:47:27;11.40;99.90
15483;DHT22;7843;50.330;7.312;2022-11-15T10:52:27;11.40;99.90
15483;DHT22;7843;50.330;7.312;2022-11-15T10:55:25;11.40;99.90
15483;DHT22;7843;50.330;7.312;2022-11-15T10:57:55;11.50;99.90
15483;DHT22;7843;50.330;7.312;2022-11-15T11:00:35;11.70;99.90
15483;DHT22;7843;50.330;7.312;2022-11-15T11:03:06;11.90;99.90
15483;DHT22;7843;50.330;7.312;2022-11-15T11:05:40;12.10;99.90
15483;DHT22;7843;50.330;7.312;2022-11-15T11:10:38;12.50;99.90
15483;DHT22;7843;50.330;7.312;2022-11-15T11:13:38;12.50;99.90
15483;DHT22;7843;50.330;7.312;2022-11-15T11:16:17;12.50;99.90
15483;DHT22;7843;50.330;7.312;2022-11-15T11:22:11;12.70;99.90
15483;DHT22;7843;50.330;7.312;2022-11-15T11:25:08;12.80;99.70
15483;DHT22;7843;50.330;7.312;2022-11-15T11:27:50;13.10;99.70
15483;DHT22;7843;50.330;7.312;2022-11-15T11:33:24;13.50;97.40
15483;DHT22;7843;50.330;7.312;2022-11-15T11:43:58;13.90;95.60
15483;DHT22;7843;50.330;7.312;2022-11-15T11:46:40;13.90;95.30
15483;DHT22;7843;50.330;7.312;2022-11-15T11:49:17;13.80;96.10
15483;DHT22;7843;50.330;7.312;2022-11-15T11:52:02;13.80;95.80
15483;DHT22;7843;50.330;7.312;2022-11-15T11:54:53;13.80;96.10
15483;DHT22;7843;50.330;7.312;2022-11-15T11:57:49;13.80;95.90
15483;DHT22;7843;50.330;7.312;2022-11-15T12:00:24;13.80;96.40
15483;DHT22;7843;50.330;7.312;2022-11-15T12:09:11;14.00;96.40
15483;DHT22;7843;50.330;7.312;2022-11-15T12:12:06;14.10;95.60
15483;DHT22;7843;50.330;7.312;2022-11-15T12:14:47;14.10;95.50
15483;DHT22;7843;50.330;7.312;2022-11-15T12:17:17;14.20;94.30
15483;DHT22;7843;50.330;7.312;2022-11-15T12:19:46;14.20;93.90
15483;DHT22;7843;50.330;7.312;2022-11-15T12:27:32;14.30;93.80
15483;DHT22;7843;50.330;7.312;2022-11-15T12:30:14;14.40;93.00
15483;DHT22;7843;50.330;7.312;2022-11-15T12:32:59;14.40;93.10
15483;DHT22;7843;50.330;7.312;2022-11-15T12:37:59;14.30;92.80
15483;DHT22;7843;50.330;7.312;2022-11-15T12:40:28;14.30;93.80
15483;DHT22;7843;50.330;7.312;2022-11-15T12:45:43;14.50;93.20
15483;DHT22;7843;50.330;7.312;2022-11-15T13:07:04;14.50;93.10
15483;DHT22;7843;50.330;7.312;2022-11-15T13:14:52;14.50;94.50
15483;DHT22;7843;50.330;7.312;2022-11-15T13:19:58;14.40;94.90
15483;DHT22;7843;50.330;7.312;2022-11-15T13:22:27;14.30;95.00
15483;DHT22;7843;50.330;7.312;2022-11-15T13:25:46;14.20;95.30
15483;DHT22;7843;50.330;7.312;2022-11-15T13:33:35;14.30;95.70
15483;DHT22;7843;50.330;7.312;2022-11-15T13:38:42;14.30;95.00
15483;DHT22;7843;50.330;7.312;2022-11-15T13:41:25;14.30;95.20
15483;DHT22;7843;50.330;7.312;2022-11-15T13:43:53;14.20;95.40
15483;DHT22;7843;50.330;7.312;2022-11-15T13:48:57;14.30;96.10
15483;DHT22;7843;50.330;7.312;2022-11-15T13:56:37;14.30;92.70
15483;DHT22;7843;50.330;7.312;2022-11-15T14:01:46;14.30;91.30
15483;DHT22;7843;50.330;7.312;2022-11-15T14:04:17;14.30;91.70
15483;DHT22;7843;50.330;7.312;2022-11-15T14:06:53;14.20;92.50
15483;DHT22;7843;50.330;7.312;2022-11-15T14:12:01;14.10;94.30
15483;DHT22;7843;50.330;7.312;2022-11-15T14:14:29;14.10;94.90
15483;DHT22;7843;50.330;7.312;2022-11-15T14:16:58;14.10;95.20
15483;DHT22;7843;50.330;7.312;2022-11-15T14:24:46;13.80;95.70
15483;DHT22;7843;50.330;7.312;2022-11-15T14:27:27;13.80;95.60
15483;DHT22;7843;50.330;7.312;2022-11-15T14:29:54;13.80;95.30
15483;DHT22;7843;50.330;7.312;2022-11-15T14:32:24;13.70;95.70
15483;DHT22;7843;50.330;7.312;2022-11-15T14:34:59;13.60;95.90
15483;DHT22;7843;50.330;7.312;2022-11-15T14:37:31;13.60;95.90
15483;DHT22;7843;50.330;7.312;2022-11-15T14:40:02;13.70;95.60
15483;DHT22;7843;50.330;7.312;2022-11-15T14:42:29;13.60;95.70
15483;DHT22;7843;50.330;7.312;2022-11-15T14:44:56;13.50;95.70
15483;DHT22;7843;50.330;7.312;2022-11-15T14:47:23;13.50;95.90
15483;DHT22;7843;50.330;7.312;2022-11-15T14:49:50;13.50;95.80
15483;DHT22;7843;50.330;7.312;2022-11-15T14:52:24;13.40;95.90
15483;DHT22;7843;50.330;7.312;2022-11-15T14:54:56;13.40;96.30
15483;DHT22;7843;50.330;7.312;2022-11-15T14:57:24;13.40;95.90
15483;DHT22;7843;50.330;7.312;2022-11-15T14:59:51;13.40;95.70
15483;DHT22;7843;50.330;7.312;2022-11-15T15:04:47;13.20;95.30
15483;DHT22;7843;50.330;7.312;2022-11-15T15:07:14;13.20;95.50
15483;DHT22;7843;50.330;7.312;2022-11-15T15:09:41;13.10;95.50
15483;DHT22;7843;50.330;7.312;2022-11-15T15:12:15;13.00;95.70
15483;DHT22;7843;50.330;7.312;2022-11-15T15:14:47;13.00;95.60
15483;DHT22;7843;50.330;7.312;2022-11-15T15:17:14;12.90;95.70
15483;DHT22;7843;50.330;7.312;2022-11-15T15:19:41;12.90;95.70
15483;DHT22;7843;50.330;7.312;2022-11-15T15:22:16;12.90;95.50
15483;DHT22;7843;50.330;7.312;2022-11-15T15:24:44;12.90;95.60
15483;DHT22;7843;50.330;7.312;2022-11-15T15:27:11;12.80;95.80
15483;DHT22;7843;50.330;7.312;2022-11-15T15:29:39;12.80;96.00
15483;DHT22;7843;50.330;7.312;2022-11-15T15:32:06;12.80;95.50
15483;DHT22;7843;50.330;7.312;2022-11-15T15:34:32;12.80;95.90
15483;DHT22;7843;50.330;7.312;2022-11-15T15:37:09;12.70;96.50
15483;DHT22;7843;50.330;7.312;2022-11-15T15:39:40;12.60;96.70
15483;DHT22;7843;50.330;7.312;2022-11-15T15:42:07;12.50;97.10
15483;DHT22;7843;50.330;7.312;2022-11-15T15:44:33;12.50;97.30
15483;DHT22;7843;50.330;7.312;2022-11-15T15:47:00;12.50;97.40
15483;DHT22;7843;50.330;7.312;2022-11-15T15:49:27;12.40;98.00
15483;DHT22;7843;50.330;7.312;2022-11-15T15:51:54;12.40;98.70
15483;DHT22;7843;50.330;7.312;2022-11-15T15:54:20;12.30;99.00
15483;DHT22;7843;50.330;7.312;2022-11-15T15:56:47;12.30;99.40
15483;DHT22;7843;50.330;7.312;2022-11-15T15:59:16;12.30;99.90
15483;DHT22;7843;50.330;7.312;2022-11-15T16:01:43;12.30;99.90
15483;DHT22;7843;50.330;7.312;2022-11-15T16:04:09;12.30;99.90
15483;DHT22;7843;50.330;7.312;2022-11-15T16:06:37;12.20;99.90
15483;DHT22;7843;50.330;7.312;2022-11-15T16:09:06;12.20;99.90
15483;DHT22;7843;50.330;7.312;2022-11-15T16:11:40;12.20;99.90
15483;DHT22;7843;50.330;7.312;2022-11-15T16:14:08;12.10;99.90
15483;DHT22;7843;50.330;7.312;2022-11-15T16:16:36;12.00;99.90
15483;DHT22;7843;50.330;7.312;2022-11-15T16:19:03;12.00;99.90
15483;DHT22;7843;50.330;7.312;2022-11-15T16:21:30;11.90;99.90
15483;DHT22;7843;50.330;7.312;2022-11-15T16:23:57;11.90;99.90
15483;DHT22;7843;50.330;7.312;2022-11-15T16:26:26;11.90;99.90
15483;DHT22;7843;50.330;7.312;2022-11-15T16:28:53;11.90;99.90
15483;DHT22;7843;50.330;7.312;2022-11-15T16:31:20;11.90;99.90
15483;DHT22;7843;50.330;7.312;2022-11-15T16:33:50;11.90;99.90
15483;DHT22;7843;50.330;7.312;2022-11-15T16:36:22;11.90;99.90
15483;DHT22;7843;50.330;7.312;2022-11-15T16:38:52;11.80;99.90
15483;DHT22;7843;50.330;7.312;2022-11-15T16:41:19;11.80;99.90
15483;DHT22;7843;50.330;7.312;2022-11-15T16:43:47;11.80;99.90
15483;DHT22;7843;50.330;7.312;2022-11-15T16:48:47;11.80;99.90
15483;DHT22;7843;50.330;7.312;2022-11-15T16:51:15;11.80;99.90
15483;DHT22;7843;50.330;7.312;2022-11-15T16:53:42;11.70;99.90
15483;DHT22;7843;50.330;7.312;2022-11-15T16:56:28;11.70;99.90
15483;DHT22;7843;50.330;7.312;2022-11-15T16:58:57;11.70;99.90
15483;DHT22;7843;50.330;7.312;2022-11-15T17:03:52;11.70;99.90
15483;DHT22;7843;50.330;7.312;2022-11-15T17:06:20;11.60;99.90
15483;DHT22;7843;50.330;7.312;2022-11-15T17:08:47;11.60;99.90
15483;DHT22;7843;50.330;7.312;2022-11-15T17:11:19;11.60;99.90
15483;DHT22;7843;50.330;7.312;2022-11-15T17:13:46;11.50;99.90
15483;DHT22;7843;50.330;7.312;2022-11-15T17:16:16;11.50;99.90
15483;DHT22;7843;50.330;7.312;2022-11-15T17:18:43;11.50;99.90
15483;DHT22;7843;50.330;7.312;2022-11-15T17:21:14;11.50;99.90
15483;DHT22;7843;50.330;7.312;2022-11-15T17:23:42;11.50;99.90
15483;DHT22;7843;50.330;7.312;2022-11-15T17:26:10;11.50;99.90
15483;DHT22;7843;50.330;7.312;2022-11-15T17:28:54;11.50;99.90
15483;DHT22;7843;50.330;7.312;2022-11-15T17:31:22;11.50;99.90
15483;DHT22;7843;50.330;7.312;2022-11-15T17:33:48;11.50;99.90
15483;DHT22;7843;50.330;7.312;2022-11-15T17:36:15;11.50;99.90
15483;DHT22;7843;50.330;7.312;2022-11-15T17:38:42;11.50;99.90
15483;DHT22;7843;50.330;7.312;2022-11-15T17:41:11;11.40;99.90
15483;DHT22;7843;50.330;7.312;2022-11-15T17:43:38;11.50;99.90
15483;DHT22;7843;50.330;7.312;2022-11-15T17:46:09;11.50;99.90
15483;DHT22;7843;50.330;7.312;2022-11-15T17:48:36;11.50;99.90
15483;DHT22;7843;50.330;7.312;2022-11-15T17:51:06;11.60;99.90
15483;DHT22;7843;50.330;7.312;2022-11-15T17:53:35;11.60;99.90
15483;DHT22;7843;50.330;7.312;2022-11-15T17:56:08;11.60;99.90
15483;DHT22;7843;50.330;7.312;2022-11-15T17:58:35;11.60;99.90
15483;DHT22;7843;50.330;7.312;2022-11-15T18:03:48;11.60;99.90
15483;DHT22;7843;50.330;7.312;2022-11-15T18:06:16;11.70;99.90
15483;DHT22;7843;50.330;7.312;2022-11-15T18:08:45;11.60;99.90
15483;DHT22;7843;50.330;7.312;2022-11-15T18:11:14;11.60;99.90
15483;DHT22;7843;50.330;7.312;2022-11-15T18:13:43;11.60;99.90
15483;DHT22;7843;50.330;7.312;2022-11-15T18:16:16;11.60;99.90
15483;DHT22;7843;50.330;7.312;2022-11-15T18:18:44;11.60;99.90
15483;DHT22;7843;50.330;7.312;2022-11-15T18:21:20;11.60;99.90
15483;DHT22;7843;50.330;7.312;2022-11-15T18:23:57;11.70;99.90
15483;DHT22;7843;50.330;7.312;2022-11-15T18:26:26;11.70;99.90
15483;DHT22;7843;50.330;7.312;2022-11-15T18:28:55;11.60;99.90
15483;DHT22;7843;50.330;7.312;2022-11-15T18:31:25;11.60;99.90
15483;DHT22;7843;50.330;7.312;2022-11-15T18:33:53;11.50;99.90
15483;DHT22;7843;50.330;7.312;2022-11-15T18:36:21;11.50;99.90
15483;DHT22;7843;50.330;7.312;2022-11-15T18:38:53;11.50;99.90
15483;DHT22;7843;50.330;7.312;2022-11-15T18:41:21;11.50;99.90